KSPI/SPI METAR and TAF weather

Enter ICAO airport designator
Station Type Date Time Source
KSPI METAR 2019/12/06 23:52 UTC NOAA

KSPI 062352Z 05006KT 10SM CLR 01/M04 A3036 RMK AO2 SLP286 T00061044 10061 20006 51015


Station Type Date Time Source
KSPI Decoded METAR 2019/12/06 23:52 UTC NOAA

ABRAHAM LINCOLN CAPITAL AIRPORT , IL, United States (KSPI) 39-51N 89-41W 181M
Dec 06, 2019 - 06:52 PM EST / 2019.12.06 2352 UTC
Wind: from the NE (050 degrees) at 7 MPH (6 KT):0
Visibility: 10 mile(s):0
Sky conditions: clear
Temperature: 33.1 F (0.6 C)
Windchill: 26 F (-3 C):1
Dew Point: 24.1 F (-4.4 C)
Relative Humidity: 69%
Pressure (altimeter): 30.36 in. Hg (1028 hPa)
Pressure tendency: 0.04 inches (1.5 hPa) higher than three hours ago
ob: KSPI 062352Z 05006KT 10SM CLR 01/M04 A3036 RMK AO2 SLP286 T00061044 10061 20006 51015
cycle: 0

Station Type Date Time Source
KSPI TAF 2019/12/06 18:28 UTC NOAA

TAF KSPI 061725Z 0618/0718 02013G23KT P6SM SCT025
FM062100 01010KT P6SM SKC
FM070100 VRB03KT P6SM SKC

Example: see airport list